Impacts TAF Board INFO
FOR SITUATIONAL AWARENESS. NOT TO BE USED FOR FLIGHT PLANNING PURPOSES.
IDs:

KBWI - Baltimore-Washington, MD, US

Issued at 0856 UTC 18 Aug 2017
Updated at 1056 UTC 18 Aug 2017
Potential Impact None Slight Moderate High
Time0954Z 18/11Z 18/12Z 18/13Z 18/14Z 18/15Z 18/16Z 18/17Z 18/18Z 18/19Z 18/20Z 18/21Z 18/22Z 18/23Z>>
Type OBS PRVL PRVL PRVL PRVL PRVL PRVL PRVL PRVL PRVL PRVL PRVL PRVL PRVL
VIS 10 6 6 >6 >6 >6 >6 >6 >6 >6 >6 >6 >6 >6
CIG 12 8 8 90 90 90 -- -- -- -- -- -- 50 50
Cover OVC BKN BKN BKN BKN BKN SCT SCT SCT SCT SCT SCT OVC OVC
FltCat MVFR IFR IFR VFR VFR VFR VFR VFR VFR VFR VFR VFR VFR VFR
WX -- BR BR -- -- -- -- -- -- -- -- -- -SHRA VCTS -SHRA VCTS
WDir 180 VRB VRB 210 210 210 210 210 210 210 210 210 180 180
WSpd 3 4 4 6 6 6 8 8 8 8 8 8 8 8
WGst -- -- -- -- -- -- 16 16 16 16 16 16 16 16

Raw TAF
KBWI 180856Z 1809/1912 VRB04KT P6SM SCT090 BKN200
  FM180930 VRB04KT 6SM BR BKN008
  FM181300 21006KT P6SM BKN090
  FM181600 21008G16KT P6SM SCT090
  FM182200 18008G16KT P6SM -SHRA VCTS OVC050CB
  FM190200 VRB04KT P6SM BKN050
  FM190600 VRB03KT 5SM BR SCT200


Raw METAR
KBWI 180954Z 18003KT 10SM BKN012 OVC100 24/24 A2986 RMK AO2 SLP109 T02390239
KBWI 180920Z 00000KT 10SM BKN012 OVC100 24/23 A2985 RMK AO2 T02390233
KBWI 180854Z 00000KT 10SM SCT100 BKN250 23/23 A2985 RMK AO2 SLP108 T02330233 58012
KBWI 180754Z 00000KT 10SM OVC110 24/23 A2987 RMK AO2 SLP112 T02390233

METAR Board
Radar Display
Forecast Discussion

FOR SITUATIONAL AWARENESS. NOT TO BE USED FOR FLIGHT PLANNING PURPOSES.